sensor_id;sensor_type;location;lat;lon;timestamp;P1;durP1;ratioP1;P2;durP2;ratioP2
823;SDS011;373;49.342;8.146;2023-07-29T00:02:15;1.40;;;1.30;;
823;SDS011;373;49.342;8.146;2023-07-29T00:04:42;2.53;;;1.70;;
823;SDS011;373;49.342;8.146;2023-07-29T00:07:09;1.63;;;1.52;;
823;SDS011;373;49.342;8.146;2023-07-29T00:09:36;2.75;;;1.60;;
823;SDS011;373;49.342;8.146;2023-07-29T00:12:03;1.35;;;1.25;;
823;SDS011;373;49.342;8.146;2023-07-29T00:14:31;1.20;;;1.20;;
823;SDS011;373;49.342;8.146;2023-07-29T00:16:58;2.20;;;1.40;;
823;SDS011;373;49.342;8.146;2023-07-29T00:19:26;2.42;;;1.65;;
823;SDS011;373;49.342;8.146;2023-07-29T00:21:53;1.35;;;1.30;;
823;SDS011;373;49.342;8.146;2023-07-29T00:24:20;2.05;;;1.50;;
823;SDS011;373;49.342;8.146;2023-07-29T00:26:47;2.60;;;1.48;;
823;SDS011;373;49.342;8.146;2023-07-29T00:29:15;1.80;;;1.70;;
823;SDS011;373;49.342;8.146;2023-07-29T00:31:42;0.80;;;0.80;;
823;SDS011;373;49.342;8.146;2023-07-29T00:34:09;2.55;;;1.30;;
823;SDS011;373;49.342;8.146;2023-07-29T00:36:43;1.42;;;1.33;;
823;SDS011;373;49.342;8.146;2023-07-29T00:39:11;5.15;;;1.85;;
823;SDS011;373;49.342;8.146;2023-07-29T00:41:39;1.08;;;1.08;;
823;SDS011;373;49.342;8.146;2023-07-29T00:44:06;4.60;;;2.00;;
823;SDS011;373;49.342;8.146;2023-07-29T00:46:33;1.60;;;1.50;;
823;SDS011;373;49.342;8.146;2023-07-29T00:49:02;1.23;;;1.08;;
823;SDS011;373;49.342;8.146;2023-07-29T00:51:29;1.65;;;1.55;;
823;SDS011;373;49.342;8.146;2023-07-29T00:53:57;1.38;;;1.27;;
823;SDS011;373;49.342;8.146;2023-07-29T00:56:24;1.85;;;1.60;;
823;SDS011;373;49.342;8.146;2023-07-29T00:58:52;1.70;;;1.50;;
823;SDS011;373;49.342;8.146;2023-07-29T01:01:24;1.40;;;1.30;;
823;SDS011;373;49.342;8.146;2023-07-29T01:03:52;1.95;;;1.30;;
823;SDS011;373;49.342;8.146;2023-07-29T01:06:21;1.77;;;1.13;;
823;SDS011;373;49.342;8.146;2023-07-29T01:08:55;1.90;;;1.70;;
823;SDS011;373;49.342;8.146;2023-07-29T01:11:31;1.10;;;1.10;;
823;SDS011;373;49.342;8.146;2023-07-29T01:14:05;1.13;;;1.10;;
823;SDS011;373;49.342;8.146;2023-07-29T01:16:44;1.95;;;1.35;;
823;SDS011;373;49.342;8.146;2023-07-29T01:19:22;1.38;;;1.27;;
823;SDS011;373;49.342;8.146;2023-07-29T01:22:00;1.73;;;1.63;;
823;SDS011;373;49.342;8.146;2023-07-29T01:24:31;2.20;;;1.58;;
823;SDS011;373;49.342;8.146;2023-07-29T01:26:58;1.83;;;1.20;;
823;SDS011;373;49.342;8.146;2023-07-29T01:29:26;1.58;;;1.33;;
823;SDS011;373;49.342;8.146;2023-07-29T01:31:54;1.00;;;1.00;;
823;SDS011;373;49.342;8.146;2023-07-29T01:34:28;2.20;;;1.83;;
823;SDS011;373;49.342;8.146;2023-07-29T01:37:01;1.80;;;1.70;;
823;SDS011;373;49.342;8.146;2023-07-29T01:39:34;1.40;;;1.30;;
823;SDS011;373;49.342;8.146;2023-07-29T01:42:03;1.70;;;1.60;;
823;SDS011;373;49.342;8.146;2023-07-29T01:44:31;1.40;;;1.27;;
823;SDS011;373;49.342;8.146;2023-07-29T01:47:00;1.60;;;1.50;;
823;SDS011;373;49.342;8.146;2023-07-29T01:49:27;1.85;;;1.75;;
823;SDS011;373;49.342;8.146;2023-07-29T01:51:54;1.38;;;1.25;;
823;SDS011;373;49.342;8.146;2023-07-29T01:54:21;1.33;;;1.10;;
823;SDS011;373;49.342;8.146;2023-07-29T01:56:49;1.50;;;1.40;;
823;SDS011;373;49.342;8.146;2023-07-29T01:59:17;1.80;;;1.70;;
823;SDS011;373;49.342;8.146;2023-07-29T02:01:44;2.53;;;1.48;;
823;SDS011;373;49.342;8.146;2023-07-29T02:04:11;1.20;;;1.20;;
823;SDS011;373;49.342;8.146;2023-07-29T02:06:38;2.40;;;1.40;;
823;SDS011;373;49.342;8.146;2023-07-29T02:09:05;1.83;;;1.17;;
823;SDS011;373;49.342;8.146;2023-07-29T02:11:33;3.63;;;1.80;;
823;SDS011;373;49.342;8.146;2023-07-29T02:14:01;2.08;;;1.30;;
823;SDS011;373;49.342;8.146;2023-07-29T02:16:28;2.00;;;1.90;;
823;SDS011;373;49.342;8.146;2023-07-29T02:18:55;1.80;;;1.50;;
823;SDS011;373;49.342;8.146;2023-07-29T02:21:22;1.08;;;1.08;;
823;SDS011;373;49.342;8.146;2023-07-29T02:23:50;1.63;;;1.52;;
823;SDS011;373;49.342;8.146;2023-07-29T02:26:17;1.95;;;1.85;;
823;SDS011;373;49.342;8.146;2023-07-29T02:28:44;2.17;;;1.38;;
823;SDS011;373;49.342;8.146;2023-07-29T02:31:16;2.05;;;1.77;;
823;SDS011;373;49.342;8.146;2023-07-29T02:33:45;1.80;;;1.70;;
823;SDS011;373;49.342;8.146;2023-07-29T02:36:12;1.48;;;0.82;;
823;SDS011;373;49.342;8.146;2023-07-29T02:38:40;1.95;;;1.85;;
823;SDS011;373;49.342;8.146;2023-07-29T02:41:08;1.75;;;1.65;;
823;SDS011;373;49.342;8.146;2023-07-29T02:43:37;2.03;;;1.48;;
823;SDS011;373;49.342;8.146;2023-07-29T02:46:06;1.23;;;1.13;;
823;SDS011;373;49.342;8.146;2023-07-29T02:48:34;1.63;;;1.52;;
823;SDS011;373;49.342;8.146;2023-07-29T02:51:02;1.80;;;1.60;;
823;SDS011;373;49.342;8.146;2023-07-29T02:53:29;1.60;;;1.50;;
823;SDS011;373;49.342;8.146;2023-07-29T02:55:56;1.20;;;1.20;;
823;SDS011;373;49.342;8.146;2023-07-29T02:58:23;2.28;;;1.52;;
823;SDS011;373;49.342;8.146;2023-07-29T03:00:51;1.80;;;1.70;;
823;SDS011;373;49.342;8.146;2023-07-29T03:03:18;1.50;;;1.40;;
823;SDS011;373;49.342;8.146;2023-07-29T03:05:47;1.80;;;1.50;;
823;SDS011;373;49.342;8.146;2023-07-29T03:08:14;2.17;;;1.60;;
823;SDS011;373;49.342;8.146;2023-07-29T03:10:41;2.20;;;2.10;;
823;SDS011;373;49.342;8.146;2023-07-29T03:13:08;2.10;;;1.30;;
823;SDS011;373;49.342;8.146;2023-07-29T03:15:35;1.60;;;1.50;;
823;SDS011;373;49.342;8.146;2023-07-29T03:18:03;2.40;;;1.52;;
823;SDS011;373;49.342;8.146;2023-07-29T03:20:30;2.90;;;1.60;;
823;SDS011;373;49.342;8.146;2023-07-29T03:22:58;2.55;;;2.15;;
823;SDS011;373;49.342;8.146;2023-07-29T03:25:25;1.90;;;1.80;;
823;SDS011;373;49.342;8.146;2023-07-29T03:27:54;2.60;;;2.40;;
823;SDS011;373;49.342;8.146;2023-07-29T03:30:21;2.45;;;2.25;;
823;SDS011;373;49.342;8.146;2023-07-29T03:32:49;2.10;;;1.85;;
823;SDS011;373;49.342;8.146;2023-07-29T03:35:17;2.38;;;2.28;;
823;SDS011;373;49.342;8.146;2023-07-29T03:37:44;2.38;;;2.17;;
823;SDS011;373;49.342;8.146;2023-07-29T03:40:14;2.33;;;2.13;;
823;SDS011;373;49.342;8.146;2023-07-29T03:42:41;2.10;;;2.00;;
823;SDS011;373;49.342;8.146;2023-07-29T03:45:08;2.40;;;1.48;;
823;SDS011;373;49.342;8.146;2023-07-29T03:47:35;1.33;;;1.30;;
823;SDS011;373;49.342;8.146;2023-07-29T03:50:03;1.63;;;1.52;;
823;SDS011;373;49.342;8.146;2023-07-29T03:52:30;1.40;;;1.30;;
823;SDS011;373;49.342;8.146;2023-07-29T03:54:57;2.15;;;1.95;;
823;SDS011;373;49.342;8.146;2023-07-29T03:57:26;2.50;;;2.30;;
823;SDS011;373;49.342;8.146;2023-07-29T03:59:54;1.83;;;1.65;;
823;SDS011;373;49.342;8.146;2023-07-29T04:02:21;1.92;;;1.80;;
823;SDS011;373;49.342;8.146;2023-07-29T04:04:48;1.38;;;1.33;;
823;SDS011;373;49.342;8.146;2023-07-29T04:07:15;2.00;;;1.38;;
823;SDS011;373;49.342;8.146;2023-07-29T04:09:42;2.65;;;1.30;;
823;SDS011;373;49.342;8.146;2023-07-29T04:12:10;2.67;;;1.67;;
823;SDS011;373;49.342;8.146;2023-07-29T04:14:38;3.28;;;1.77;;
823;SDS011;373;49.342;8.146;2023-07-29T04:17:05;1.42;;;1.33;;
823;SDS011;373;49.342;8.146;2023-07-29T04:19:33;1.50;;;1.40;;
823;SDS011;373;49.342;8.146;2023-07-29T04:22:01;2.75;;;2.00;;
823;SDS011;373;49.342;8.146;2023-07-29T04:24:28;2.67;;;1.67;;
823;SDS011;373;49.342;8.146;2023-07-29T04:26:55;2.35;;;1.60;;
823;SDS011;373;49.342;8.146;2023-07-29T04:29:22;2.70;;;1.92;;
823;SDS011;373;49.342;8.146;2023-07-29T04:31:50;2.00;;;1.80;;
823;SDS011;373;49.342;8.146;2023-07-29T04:34:17;1.92;;;1.83;;
823;SDS011;373;49.342;8.146;2023-07-29T04:36:45;3.17;;;2.30;;
823;SDS011;373;49.342;8.146;2023-07-29T04:39:12;4.95;;;2.45;;
823;SDS011;373;49.342;8.146;2023-07-29T04:41:39;2.50;;;2.30;;
823;SDS011;373;49.342;8.146;2023-07-29T04:44:07;3.40;;;2.30;;
823;SDS011;373;49.342;8.146;2023-07-29T04:46:35;2.22;;;2.13;;
823;SDS011;373;49.342;8.146;2023-07-29T04:49:04;3.13;;;2.08;;
823;SDS011;373;49.342;8.146;2023-07-29T04:51:31;2.25;;;2.10;;
823;SDS011;373;49.342;8.146;2023-07-29T04:53:59;3.92;;;2.53;;
823;SDS011;373;49.342;8.146;2023-07-29T04:56:26;2.65;;;2.45;;
823;SDS011;373;49.342;8.146;2023-07-29T04:58:54;3.20;;;2.90;;
823;SDS011;373;49.342;8.146;2023-07-29T05:01:24;2.53;;;2.33;;
823;SDS011;373;49.342;8.146;2023-07-29T05:03:52;2.92;;;2.53;;
823;SDS011;373;49.342;8.146;2023-07-29T05:06:20;4.57;;;2.55;;
823;SDS011;373;49.342;8.146;2023-07-29T05:08:47;3.90;;;2.60;;
823;SDS011;373;49.342;8.146;2023-07-29T05:11:14;2.85;;;2.03;;
823;SDS011;373;49.342;8.146;2023-07-29T05:13:41;3.05;;;2.22;;
823;SDS011;373;49.342;8.146;2023-07-29T05:16:10;2.28;;;1.90;;
823;SDS011;373;49.342;8.146;2023-07-29T05:18:37;2.63;;;2.35;;
823;SDS011;373;49.342;8.146;2023-07-29T05:21:04;2.55;;;1.85;;
823;SDS011;373;49.342;8.146;2023-07-29T05:23:32;2.42;;;2.08;;
823;SDS011;373;49.342;8.146;2023-07-29T05:25:59;2.45;;;1.70;;
823;SDS011;373;49.342;8.146;2023-07-29T05:28:26;5.70;;;2.53;;
823;SDS011;373;49.342;8.146;2023-07-29T05:30:53;3.33;;;1.80;;
823;SDS011;373;49.342;8.146;2023-07-29T05:33:20;3.83;;;2.08;;
823;SDS011;373;49.342;8.146;2023-07-29T05:35:48;2.03;;;1.50;;
823;SDS011;373;49.342;8.146;2023-07-29T05:38:15;3.38;;;1.90;;
823;SDS011;373;49.342;8.146;2023-07-29T05:40:43;2.85;;;2.25;;
823;SDS011;373;49.342;8.146;2023-07-29T05:43:10;2.47;;;2.28;;
823;SDS011;373;49.342;8.146;2023-07-29T05:45:37;3.63;;;2.22;;
823;SDS011;373;49.342;8.146;2023-07-29T05:48:04;3.67;;;2.33;;
823;SDS011;373;49.342;8.146;2023-07-29T05:50:31;2.70;;;2.38;;
823;SDS011;373;49.342;8.146;2023-07-29T05:53:00;2.75;;;2.55;;
823;SDS011;373;49.342;8.146;2023-07-29T05:55:27;3.13;;;2.50;;
823;SDS011;373;49.342;8.146;2023-07-29T05:57:56;2.88;;;2.50;;
823;SDS011;373;49.342;8.146;2023-07-29T06:00:23;3.03;;;2.33;;
823;SDS011;373;49.342;8.146;2023-07-29T06:02:50;3.42;;;2.60;;
823;SDS011;373;49.342;8.146;2023-07-29T06:05:20;3.13;;;2.45;;
823;SDS011;373;49.342;8.146;2023-07-29T06:07:47;2.45;;;2.25;;
823;SDS011;373;49.342;8.146;2023-07-29T06:10:15;2.80;;;2.60;;
823;SDS011;373;49.342;8.146;2023-07-29T06:12:43;4.10;;;2.40;;
823;SDS011;373;49.342;8.146;2023-07-29T06:15:12;3.00;;;2.70;;
823;SDS011;373;49.342;8.146;2023-07-29T06:17:40;2.40;;;2.20;;
823;SDS011;373;49.342;8.146;2023-07-29T06:20:07;4.40;;;3.20;;
823;SDS011;373;49.342;8.146;2023-07-29T06:22:35;2.70;;;2.50;;
823;SDS011;373;49.342;8.146;2023-07-29T06:25:03;2.85;;;2.58;;
823;SDS011;373;49.342;8.146;2023-07-29T06:27:30;2.20;;;2.10;;
823;SDS011;373;49.342;8.146;2023-07-29T06:29:57;2.70;;;2.50;;
823;SDS011;373;49.342;8.146;2023-07-29T06:32:26;2.85;;;2.47;;
823;SDS011;373;49.342;8.146;2023-07-29T06:34:53;2.35;;;2.15;;
823;SDS011;373;49.342;8.146;2023-07-29T06:37:20;3.05;;;2.78;;
823;SDS011;373;49.342;8.146;2023-07-29T06:39:47;3.03;;;1.75;;
823;SDS011;373;49.342;8.146;2023-07-29T06:42:14;1.90;;;1.80;;
823;SDS011;373;49.342;8.146;2023-07-29T06:44:41;1.45;;;1.40;;
823;SDS011;373;49.342;8.146;2023-07-29T06:47:11;1.40;;;1.30;;
823;SDS011;373;49.342;8.146;2023-07-29T06:49:39;1.38;;;1.27;;
823;SDS011;373;49.342;8.146;2023-07-29T06:52:06;1.63;;;1.50;;
823;SDS011;373;49.342;8.146;2023-07-29T06:54:33;1.63;;;1.20;;
823;SDS011;373;49.342;8.146;2023-07-29T06:57:00;1.83;;;1.20;;
823;SDS011;373;49.342;8.146;2023-07-29T06:59:28;1.73;;;1.60;;
823;SDS011;373;49.342;8.146;2023-07-29T07:01:55;1.77;;;1.30;;
823;SDS011;373;49.342;8.146;2023-07-29T07:04:22;0.95;;;0.95;;
823;SDS011;373;49.342;8.146;2023-07-29T07:06:50;1.40;;;1.25;;
823;SDS011;373;49.342;8.146;2023-07-29T07:09:17;2.55;;;1.10;;
823;SDS011;373;49.342;8.146;2023-07-29T07:11:44;2.67;;;1.67;;
823;SDS011;373;49.342;8.146;2023-07-29T07:14:11;2.67;;;1.00;;
823;SDS011;373;49.342;8.146;2023-07-29T07:16:39;1.00;;;1.00;;
823;SDS011;373;49.342;8.146;2023-07-29T07:19:06;1.35;;;1.30;;
823;SDS011;373;49.342;8.146;2023-07-29T07:21:33;1.92;;;1.05;;
823;SDS011;373;49.342;8.146;2023-07-29T07:24:01;1.73;;;1.45;;
823;SDS011;373;49.342;8.146;2023-07-29T07:26:28;1.17;;;1.08;;
823;SDS011;373;49.342;8.146;2023-07-29T07:28:55;1.75;;;1.55;;
823;SDS011;373;49.342;8.146;2023-07-29T07:31:22;1.40;;;1.30;;
823;SDS011;373;49.342;8.146;2023-07-29T07:33:49;1.25;;;1.20;;
823;SDS011;373;49.342;8.146;2023-07-29T07:36:16;4.38;;;1.67;;
823;SDS011;373;49.342;8.146;2023-07-29T07:38:43;1.17;;;1.05;;
823;SDS011;373;49.342;8.146;2023-07-29T07:41:11;1.42;;;1.33;;
823;SDS011;373;49.342;8.146;2023-07-29T07:43:39;1.58;;;1.20;;
823;SDS011;373;49.342;8.146;2023-07-29T07:46:06;1.60;;;1.40;;
823;SDS011;373;49.342;8.146;2023-07-29T07:48:33;3.55;;;1.58;;
823;SDS011;373;49.342;8.146;2023-07-29T07:51:00;1.75;;;1.30;;
823;SDS011;373;49.342;8.146;2023-07-29T07:53:35;3.28;;;1.38;;
823;SDS011;373;49.342;8.146;2023-07-29T07:56:03;3.22;;;1.40;;
823;SDS011;373;49.342;8.146;2023-07-29T07:58:31;1.30;;;1.20;;
823;SDS011;373;49.342;8.146;2023-07-29T08:01:00;1.45;;;1.35;;
823;SDS011;373;49.342;8.146;2023-07-29T08:03:28;1.30;;;1.20;;
823;SDS011;373;49.342;8.146;2023-07-29T08:05:55;2.88;;;1.17;;
823;SDS011;373;49.342;8.146;2023-07-29T08:08:22;1.45;;;1.30;;
823;SDS011;373;49.342;8.146;2023-07-29T08:10:49;2.05;;;1.35;;
823;SDS011;373;49.342;8.146;2023-07-29T08:13:16;3.08;;;1.73;;
823;SDS011;373;49.342;8.146;2023-07-29T08:15:46;1.83;;;1.30;;
823;SDS011;373;49.342;8.146;2023-07-29T08:18:14;2.10;;;1.70;;
823;SDS011;373;49.342;8.146;2023-07-29T08:20:41;2.53;;;1.27;;
823;SDS011;373;49.342;8.146;2023-07-29T08:23:17;1.50;;;1.40;;
823;SDS011;373;49.342;8.146;2023-07-29T08:25:44;1.00;;;1.00;;
823;SDS011;373;49.342;8.146;2023-07-29T08:28:11;1.40;;;1.30;;
823;SDS011;373;49.342;8.146;2023-07-29T08:30:38;1.08;;;1.00;;
823;SDS011;373;49.342;8.146;2023-07-29T08:33:06;1.52;;;0.88;;
823;SDS011;373;49.342;8.146;2023-07-29T08:35:33;1.33;;;0.98;;
823;SDS011;373;49.342;8.146;2023-07-29T08:38:01;1.23;;;1.02;;
823;SDS011;373;49.342;8.146;2023-07-29T08:40:29;1.52;;;1.10;;
823;SDS011;373;49.342;8.146;2023-07-29T08:42:57;0.88;;;0.88;;
823;SDS011;373;49.342;8.146;2023-07-29T08:45:30;3.85;;;0.90;;
823;SDS011;373;49.342;8.146;2023-07-29T08:48:00;1.08;;;0.98;;
823;SDS011;373;49.342;8.146;2023-07-29T08:50:33;0.93;;;0.93;;
823;SDS011;373;49.342;8.146;2023-07-29T08:53:01;2.92;;;1.45;;
823;SDS011;373;49.342;8.146;2023-07-29T08:55:30;0.70;;;0.70;;
823;SDS011;373;49.342;8.146;2023-07-29T08:57:58;0.65;;;0.65;;
823;SDS011;373;49.342;8.146;2023-07-29T09:00:26;1.48;;;0.75;;
823;SDS011;373;49.342;8.146;2023-07-29T09:02:53;0.93;;;0.90;;
823;SDS011;373;49.342;8.146;2023-07-29T09:05:23;1.20;;;1.00;;
823;SDS011;373;49.342;8.146;2023-07-29T09:07:51;1.08;;;1.00;;
823;SDS011;373;49.342;8.146;2023-07-29T09:10:21;1.33;;;1.00;;
823;SDS011;373;49.342;8.146;2023-07-29T09:12:49;1.80;;;1.10;;
823;SDS011;373;49.342;8.146;2023-07-29T09:15:26;1.23;;;1.13;;
823;SDS011;373;49.342;8.146;2023-07-29T09:17:55;1.10;;;1.00;;
823;SDS011;373;49.342;8.146;2023-07-29T09:20:24;1.23;;;1.13;;
823;SDS011;373;49.342;8.146;2023-07-29T09:22:53;1.17;;;0.77;;
823;SDS011;373;49.342;8.146;2023-07-29T09:25:22;1.33;;;1.10;;
823;SDS011;373;49.342;8.146;2023-07-29T09:27:50;1.67;;;0.98;;
823;SDS011;373;49.342;8.146;2023-07-29T09:30:17;1.27;;;0.95;;
823;SDS011;373;49.342;8.146;2023-07-29T10:29:53;1.42;;;1.00;;
823;SDS011;373;49.342;8.146;2023-07-29T10:32:22;1.33;;;1.10;;
823;SDS011;373;49.342;8.146;2023-07-29T10:34:52;1.30;;;1.05;;
823;SDS011;373;49.342;8.146;2023-07-29T10:37:20;2.47;;;1.20;;
823;SDS011;373;49.342;8.146;2023-07-29T10:39:54;1.00;;;0.90;;
823;SDS011;373;49.342;8.146;2023-07-29T10:42:22;1.50;;;1.20;;
823;SDS011;373;49.342;8.146;2023-07-29T10:44:49;1.65;;;1.15;;
823;SDS011;373;49.342;8.146;2023-07-29T10:47:20;1.65;;;1.15;;
823;SDS011;373;49.342;8.146;2023-07-29T10:49:49;1.10;;;1.10;;
823;SDS011;373;49.342;8.146;2023-07-29T10:52:29;1.38;;;1.27;;
823;SDS011;373;49.342;8.146;2023-07-29T10:54:57;1.25;;;0.90;;
823;SDS011;373;49.342;8.146;2023-07-29T10:57:32;1.80;;;1.48;;
823;SDS011;373;49.342;8.146;2023-07-29T10:59:59;1.98;;;1.10;;
823;SDS011;373;49.342;8.146;2023-07-29T11:02:30;1.35;;;1.17;;
823;SDS011;373;49.342;8.146;2023-07-29T11:04:58;1.25;;;1.02;;
823;SDS011;373;49.342;8.146;2023-07-29T11:07:30;1.88;;;1.00;;
823;SDS011;373;49.342;8.146;2023-07-29T11:10:09;0.80;;;0.80;;
823;SDS011;373;49.342;8.146;2023-07-29T11:12:40;2.10;;;1.38;;
823;SDS011;373;49.342;8.146;2023-07-29T11:15:14;1.30;;;1.20;;
823;SDS011;373;49.342;8.146;2023-07-29T11:17:47;1.38;;;1.00;;
823;SDS011;373;49.342;8.146;2023-07-29T11:20:16;1.20;;;1.10;;
823;SDS011;373;49.342;8.146;2023-07-29T11:22:44;0.88;;;0.82;;
823;SDS011;373;49.342;8.146;2023-07-29T11:25:12;1.30;;;1.00;;
823;SDS011;373;49.342;8.146;2023-07-29T11:27:40;1.02;;;0.93;;
823;SDS011;373;49.342;8.146;2023-07-29T11:30:09;1.83;;;0.90;;
823;SDS011;373;49.342;8.146;2023-07-29T11:32:37;1.73;;;1.10;;
823;SDS011;373;49.342;8.146;2023-07-29T11:35:07;3.30;;;1.00;;
823;SDS011;373;49.342;8.146;2023-07-29T11:37:36;1.13;;;1.02;;
823;SDS011;373;49.342;8.146;2023-07-29T11:40:04;1.17;;;1.05;;
823;SDS011;373;49.342;8.146;2023-07-29T11:42:33;1.17;;;1.08;;
823;SDS011;373;49.342;8.146;2023-07-29T11:45:01;1.10;;;1.10;;
823;SDS011;373;49.342;8.146;2023-07-29T11:47:29;1.67;;;1.20;;
823;SDS011;373;49.342;8.146;2023-07-29T11:49:58;1.67;;;1.20;;
823;SDS011;373;49.342;8.146;2023-07-29T11:52:28;1.92;;;1.10;;
823;SDS011;373;49.342;8.146;2023-07-29T11:54:57;0.98;;;0.93;;
823;SDS011;373;49.342;8.146;2023-07-29T11:57:25;1.10;;;1.10;;
823;SDS011;373;49.342;8.146;2023-07-29T11:59:52;1.60;;;1.08;;
823;SDS011;373;49.342;8.146;2023-07-29T12:02:19;0.93;;;0.93;;
823;SDS011;373;49.342;8.146;2023-07-29T12:04:48;2.25;;;0.82;;
823;SDS011;373;49.342;8.146;2023-07-29T12:07:16;0.90;;;0.90;;
823;SDS011;373;49.342;8.146;2023-07-29T12:09:45;1.10;;;1.10;;
823;SDS011;373;49.342;8.146;2023-07-29T12:12:13;1.10;;;1.00;;
823;SDS011;373;49.342;8.146;2023-07-29T12:14:43;1.50;;;1.40;;
823;SDS011;373;49.342;8.146;2023-07-29T12:17:11;1.10;;;1.10;;
823;SDS011;373;49.342;8.146;2023-07-29T12:19:39;1.23;;;1.13;;
823;SDS011;373;49.342;8.146;2023-07-29T12:22:08;1.13;;;1.02;;
823;SDS011;373;49.342;8.146;2023-07-29T12:24:36;1.60;;;1.05;;
823;SDS011;373;49.342;8.146;2023-07-29T12:27:09;1.23;;;1.10;;
823;SDS011;373;49.342;8.146;2023-07-29T12:29:39;2.90;;;1.00;;
823;SDS011;373;49.342;8.146;2023-07-29T12:32:08;2.40;;;1.20;;
823;SDS011;373;49.342;8.146;2023-07-29T12:34:35;1.27;;;1.17;;
823;SDS011;373;49.342;8.146;2023-07-29T12:37:04;1.17;;;1.13;;
823;SDS011;373;49.342;8.146;2023-07-29T12:39:33;1.60;;;1.50;;
823;SDS011;373;49.342;8.146;2023-07-29T12:42:02;1.13;;;0.93;;
823;SDS011;373;49.342;8.146;2023-07-29T12:44:31;1.58;;;0.88;;
823;SDS011;373;49.342;8.146;2023-07-29T12:47:00;1.20;;;1.10;;
823;SDS011;373;49.342;8.146;2023-07-29T12:49:29;0.95;;;0.85;;
823;SDS011;373;49.342;8.146;2023-07-29T12:51:56;3.40;;;1.17;;
823;SDS011;373;49.342;8.146;2023-07-29T12:54:23;1.75;;;0.93;;
823;SDS011;373;49.342;8.146;2023-07-29T12:56:50;1.38;;;1.20;;
823;SDS011;373;49.342;8.146;2023-07-29T12:59:18;2.17;;;1.10;;
823;SDS011;373;49.342;8.146;2023-07-29T13:01:46;0.95;;;0.90;;
823;SDS011;373;49.342;8.146;2023-07-29T13:04:13;2.03;;;1.10;;
823;SDS011;373;49.342;8.146;2023-07-29T13:06:40;1.05;;;0.95;;
823;SDS011;373;49.342;8.146;2023-07-29T13:09:07;1.02;;;0.93;;
823;SDS011;373;49.342;8.146;2023-07-29T13:11:34;1.02;;;0.95;;
823;SDS011;373;49.342;8.146;2023-07-29T13:14:01;1.05;;;0.85;;
823;SDS011;373;49.342;8.146;2023-07-29T13:16:28;1.52;;;1.42;;
823;SDS011;373;49.342;8.146;2023-07-29T13:18:57;1.60;;;1.13;;
823;SDS011;373;49.342;8.146;2023-07-29T13:21:24;2.00;;;1.20;;
823;SDS011;373;49.342;8.146;2023-07-29T13:23:51;0.82;;;0.82;;
823;SDS011;373;49.342;8.146;2023-07-29T13:26:18;0.80;;;0.80;;
823;SDS011;373;49.342;8.146;2023-07-29T13:28:45;1.92;;;1.65;;
823;SDS011;373;49.342;8.146;2023-07-29T13:31:12;1.45;;;1.35;;
823;SDS011;373;49.342;8.146;2023-07-29T13:33:39;0.98;;;0.98;;
823;SDS011;373;49.342;8.146;2023-07-29T13:36:08;1.63;;;1.17;;
823;SDS011;373;49.342;8.146;2023-07-29T13:38:35;1.23;;;1.13;;
823;SDS011;373;49.342;8.146;2023-07-29T13:41:02;1.65;;;1.10;;
823;SDS011;373;49.342;8.146;2023-07-29T13:43:30;1.10;;;1.08;;
823;SDS011;373;49.342;8.146;2023-07-29T13:45:57;1.75;;;1.00;;
823;SDS011;373;49.342;8.146;2023-07-29T13:48:24;1.15;;;1.05;;
823;SDS011;373;49.342;8.146;2023-07-29T13:50:51;1.35;;;0.90;;
823;SDS011;373;49.342;8.146;2023-07-29T13:53:19;1.25;;;1.13;;
823;SDS011;373;49.342;8.146;2023-07-29T13:55:46;1.50;;;1.25;;
823;SDS011;373;49.342;8.146;2023-07-29T13:58:13;1.48;;;1.02;;
823;SDS011;373;49.342;8.146;2023-07-29T14:00:40;1.75;;;1.27;;
823;SDS011;373;49.342;8.146;2023-07-29T14:03:07;1.08;;;1.08;;
823;SDS011;373;49.342;8.146;2023-07-29T14:05:34;1.40;;;1.13;;
823;SDS011;373;49.342;8.146;2023-07-29T14:08:01;1.08;;;1.05;;
823;SDS011;373;49.342;8.146;2023-07-29T14:10:29;0.98;;;0.98;;
823;SDS011;373;49.342;8.146;2023-07-29T14:12:56;0.98;;;0.95;;
823;SDS011;373;49.342;8.146;2023-07-29T14:15:23;1.90;;;1.17;;
823;SDS011;373;49.342;8.146;2023-07-29T14:17:50;1.15;;;1.05;;
823;SDS011;373;49.342;8.146;2023-07-29T14:20:17;1.20;;;1.10;;
823;SDS011;373;49.342;8.146;2023-07-29T14:22:44;0.98;;;0.85;;
823;SDS011;373;49.342;8.146;2023-07-29T14:25:11;3.28;;;1.42;;
823;SDS011;373;49.342;8.146;2023-07-29T14:27:40;1.40;;;1.30;;
823;SDS011;373;49.342;8.146;2023-07-29T14:30:07;1.90;;;1.30;;
823;SDS011;373;49.342;8.146;2023-07-29T14:32:35;1.98;;;1.17;;
823;SDS011;373;49.342;8.146;2023-07-29T14:35:02;1.30;;;1.20;;
823;SDS011;373;49.342;8.146;2023-07-29T14:37:30;1.52;;;1.42;;
823;SDS011;373;49.342;8.146;2023-07-29T14:39:57;1.33;;;1.23;;
823;SDS011;373;49.342;8.146;2023-07-29T14:42:24;0.95;;;0.95;;
823;SDS011;373;49.342;8.146;2023-07-29T14:44:53;1.30;;;1.20;;
823;SDS011;373;49.342;8.146;2023-07-29T14:47:20;2.05;;;1.52;;
823;SDS011;373;49.342;8.146;2023-07-29T14:49:47;5.63;;;1.48;;
823;SDS011;373;49.342;8.146;2023-07-29T14:52:14;1.40;;;1.30;;
823;SDS011;373;49.342;8.146;2023-07-29T14:54:41;2.33;;;1.25;;
823;SDS011;373;49.342;8.146;2023-07-29T14:57:09;1.50;;;1.20;;
823;SDS011;373;49.342;8.146;2023-07-29T14:59:36;1.40;;;1.30;;
823;SDS011;373;49.342;8.146;2023-07-29T15:02:05;5.85;;;1.50;;
823;SDS011;373;49.342;8.146;2023-07-29T15:04:33;1.58;;;1.00;;
823;SDS011;373;49.342;8.146;2023-07-29T15:07:00;1.30;;;1.20;;
823;SDS011;373;49.342;8.146;2023-07-29T15:09:28;1.55;;;1.38;;
823;SDS011;373;49.342;8.146;2023-07-29T15:11:55;1.30;;;1.20;;
823;SDS011;373;49.342;8.146;2023-07-29T15:14:22;1.90;;;1.80;;
823;SDS011;373;49.342;8.146;2023-07-29T15:16:49;2.13;;;1.20;;
823;SDS011;373;49.342;8.146;2023-07-29T15:19:18;1.33;;;1.23;;
823;SDS011;373;49.342;8.146;2023-07-29T15:21:45;1.42;;;1.33;;
823;SDS011;373;49.342;8.146;2023-07-29T15:24:12;1.42;;;1.33;;
823;SDS011;373;49.342;8.146;2023-07-29T15:26:39;1.23;;;1.13;;
823;SDS011;373;49.342;8.146;2023-07-29T15:29:07;1.75;;;1.30;;
823;SDS011;373;49.342;8.146;2023-07-29T15:31:34;1.48;;;1.38;;
823;SDS011;373;49.342;8.146;2023-07-29T15:34:02;1.65;;;1.55;;
823;SDS011;373;49.342;8.146;2023-07-29T15:36:30;1.73;;;1.13;;
823;SDS011;373;49.342;8.146;2023-07-29T15:39:00;1.35;;;1.25;;
823;SDS011;373;49.342;8.146;2023-07-29T15:41:30;1.95;;;1.58;;
823;SDS011;373;49.342;8.146;2023-07-29T15:43:58;1.42;;;1.25;;
823;SDS011;373;49.342;8.146;2023-07-29T15:46:26;1.50;;;1.33;;
823;SDS011;373;49.342;8.146;2023-07-29T15:48:52;3.33;;;1.63;;
823;SDS011;373;49.342;8.146;2023-07-29T15:51:24;1.67;;;1.50;;
823;SDS011;373;49.342;8.146;2023-07-29T15:53:53;1.27;;;1.17;;
823;SDS011;373;49.342;8.146;2023-07-29T15:56:20;1.30;;;1.20;;
823;SDS011;373;49.342;8.146;2023-07-29T15:58:47;1.83;;;1.30;;
823;SDS011;373;49.342;8.146;2023-07-29T16:01:15;2.20;;;1.45;;
823;SDS011;373;49.342;8.146;2023-07-29T16:03:42;1.30;;;1.20;;
823;SDS011;373;49.342;8.146;2023-07-29T16:06:09;1.63;;;1.30;;
823;SDS011;373;49.342;8.146;2023-07-29T16:08:36;1.30;;;1.20;;
823;SDS011;373;49.342;8.146;2023-07-29T16:11:04;2.17;;;1.25;;
823;SDS011;373;49.342;8.146;2023-07-29T16:13:32;1.50;;;1.40;;
823;SDS011;373;49.342;8.146;2023-07-29T16:15:59;2.33;;;1.42;;
823;SDS011;373;49.342;8.146;2023-07-29T16:18:26;1.50;;;1.40;;
823;SDS011;373;49.342;8.146;2023-07-29T16:20:53;2.05;;;1.15;;
823;SDS011;373;49.342;8.146;2023-07-29T16:23:26;1.27;;;1.15;;
823;SDS011;373;49.342;8.146;2023-07-29T16:25:53;1.40;;;1.30;;
823;SDS011;373;49.342;8.146;2023-07-29T16:28:22;1.48;;;1.17;;
823;SDS011;373;49.342;8.146;2023-07-29T17:19:16;1.63;;;1.52;;
823;SDS011;373;49.342;8.146;2023-07-29T17:21:43;1.65;;;1.52;;
823;SDS011;373;49.342;8.146;2023-07-29T17:24:10;1.52;;;1.42;;
823;SDS011;373;49.342;8.146;2023-07-29T17:26:37;1.63;;;1.52;;
823;SDS011;373;49.342;8.146;2023-07-29T17:29:04;2.67;;;2.05;;
823;SDS011;373;49.342;8.146;2023-07-29T17:31:31;1.55;;;1.45;;
823;SDS011;373;49.342;8.146;2023-07-29T17:33:58;2.03;;;1.92;;
823;SDS011;373;49.342;8.146;2023-07-29T17:36:27;2.92;;;2.38;;